Terminal Aerodrome Forecast
Issued by NWS

Home | Current Version | Previous Version | Graphics & Text | Print | Product List | Glossary On
Versions: 1 2 3 4 5 6 7 8 9 10 11 12 13 14
000
FTUS43 KMPX 230542
TAFRWF
TAF
KRWF 230542Z 2306/2406 33011KT P6SM OVC013
     FM230900 36008KT P6SM SCT150
     FM231600 05010KT P6SM OVC100
     FM232000 05012G20KT P6SM OVC050
     FM240100 04018G30KT 3SM -SN BR OVC025=

USA.gov is the U.S. government's official web portal to all federal, state and local government web resources and services.